Creemore, Canada
Current Conditions -  °F | °C
As of 7:00 AM on Monday 20 Oct 2014 (Local Time) from CYBN Reporting Station
Light Rain Light Rain  
Wind Chill: 36°   Ceiling: 4200
Heat Index: 41°   Visibility: 9mi
Dew Point: 39°   Wind: 8mph
Humidity: 93%   Direction: 150°SSE
Pressure: 29.86"   Gusts: NA
Location:  44.32°N, 80.1°W
Report Text: CYBN 201100Z AUTO 15007KT 9SM -RA BKN042 05/04 A2986 RMKSLP120
Loading
Personal Weather Stations






























Interactive Weather Map
Tropical Storm Tracking
New forecast layout! Learn more

10-Day Weather Forecast

Advertisements
Track Severe Weather on mobile